Decoded Metar for LFAQ (ALBERT in FRANCE) (IATA:N/A) | Meteo·Mobile Aviation Weather
aviador You're here:

LFAQ Decoded Metar

ALBERT in FRANCE
Report Time2019-03-21 15:30:00
UTC Time2019-03-21 15:54:35
Flight Rules mvfr MVFR
Wind360° at 06 kt
W.Decomp.*RWY 09: 0.1 kt HW 6 kt LCW
Visibility9999 m
Phenomena:N/A
Clouds:Broken 025 Hf
Expected CloudBase > 2,400 ft AGL from Temp-Dew spread
Ceiling2,500 ft
Temp14°C (ISA -0)
Dew Point08°C (67% RH)
AAT11.4°C
QNH1032 hPa
Density Alt-161 ft
Elevation364 ft
Report Wrong Elevation
Raw Report
METAR LFAQ 211530Z AUTO 36006KT 320V050 9999 BKN025/// 14/08 Q1032
NOSIG=

Extra information for LFAQ:More info

Metar Taf Metar & Taf Last 4 Metars F.Rules Stats Wind Profile Meteogram Temp Stats Airport Information Weather charts Add Link Nearby VenuesMetar ALERT Operation Metar Decoded Social comments